Airfield :
LOGIN :

Register | Disclaimer

   EN    FR    IT 

 










Legend :    VFR   Marginal VFR   IFR   Intensive IFR   Very Intensive IFR
Visi :
Ceiling :
>= 8 km
>= 3000ft
5 to 8 km
1000 to 3000 ft
1500m to 5 km
500 to 1000 ft
800 to 1500m
200 to 500 ft
< 800m
< 200 ft
Symbols :   Thunderstorms  Fog  Heavy snow  Heavy precipitations  Wind > 20 kt
SIGMETs :     Misc.  Thunderstorms  Icing  Turbulence  Mountain Waves  Volcanic Ashes






- Airport Elevation : 158 ft
- IATA code : QAR


EHDL - Deelen Airbase

CURRENT METAR :
  • 280355Z AUTO 20006KT 120V210 6000 BR OVC160 10/09 Q1017 WHT

EXPIRED METARs :
  • 280325Z AUTO 19005KT 130V240 6000 BR BKN160 10/09 Q1017 WHT
  • 280255Z AUTO 20006KT 150V240 6000 BR FEW003 10/10 Q1017 WHT
  • 280225Z AUTO 20007KT 130V240 5000 BR SCT003 BKN004 11/10 Q1017 YLO
  • 280155Z AUTO 18003KT 4300 BR FEW006 SCT007 BKN010 11/11 Q1017 GRN
  • 280125Z AUTO 21001KT 6000 BR FEW004 SCT008 BKN009 11/11 Q1017 GRN
  • 280055Z AUTO 24001KT 7000 BR FEW015CB SCT031 BKN037 12/11 Q1017 WHT
  • 280025Z AUTO 24004KT 5000 BR FEW015CB BKN033 BKN038 12/11 Q1017 WHT
  • 272355Z AUTO 29001KT 4200 -SHRA FEW008 FEW015CB SCT028 BKN033 12/12 Q1017 REDZ GRN
  • 272325Z AUTO 23002KT 5000 -DZ FEW015CB SCT026 OVC034 12/12 Q1017 WHT

Expired Forecast.



MET'MAP, your aeronautical weather chart ! - Copyright ORBIFLY December 2007 - Disclaimer

ORBIFLY MET'MAP TEAM :

Programming & Development : Alexandra Zaïnal
Original concept : Baudouin d'Aumeries
Technical & hardware support : Manuel Goepfert
Assistance : Marc-Olivier Méhu




SOURCES & CREDITS :

   NOAA